Metar z połowy godziny Komunikat METAR ze strony awiacja.imgw.pl Metar G00 EPRA METAR EPRA 230330Z 18008KT 9999 -RA OVC042 08/05 Q0996=